createdAt,value
2018-03-14T00:00:37.547Z,1.27
2018-03-14T00:03:04.954Z,1.10
2018-03-14T00:05:33.384Z,0.90
2018-03-14T00:08:00.813Z,1.00
2018-03-14T00:10:28.063Z,1.40
2018-03-14T00:12:55.496Z,1.20
2018-03-14T00:15:22.906Z,1.13
2018-03-14T00:17:50.330Z,1.03
2018-03-14T00:20:17.715Z,1.80
2018-03-14T00:22:45.127Z,1.13
2018-03-14T00:25:13.005Z,1.20
2018-03-14T00:27:40.412Z,1.20
2018-03-14T00:30:09.731Z,1.20
2018-03-14T00:32:37.149Z,1.33
2018-03-14T00:35:06.220Z,1.07
2018-03-14T00:37:33.646Z,1.40
2018-03-14T00:40:01.061Z,1.07
2018-03-14T00:42:28.476Z,1.20
2018-03-14T00:44:56.254Z,1.27
2018-03-14T00:47:23.667Z,1.20
2018-03-14T00:49:51.081Z,1.33
2018-03-14T00:52:18.513Z,1.97
2018-03-14T00:54:46.829Z,1.10
2018-03-14T00:57:14.272Z,1.07
2018-03-14T00:59:41.696Z,1.17
2018-03-14T01:02:09.109Z,0.90
2018-03-14T01:04:36.353Z,1.57
2018-03-14T01:07:03.761Z,1.23
2018-03-14T01:09:31.180Z,1.13
2018-03-14T01:11:58.606Z,1.27
2018-03-14T01:14:26.022Z,1.20
2018-03-14T01:16:53.476Z,1.50
2018-03-14T01:19:20.894Z,1.27
2018-03-14T01:21:48.309Z,1.70
2018-03-14T01:24:16.401Z,1.23
2018-03-14T01:26:43.810Z,1.63
2018-03-14T01:29:11.222Z,1.97
2018-03-14T01:31:38.655Z,1.13
2018-03-14T01:34:05.877Z,1.10
2018-03-14T01:36:33.335Z,1.40
2018-03-14T01:39:00.821Z,1.13
2018-03-14T01:41:28.238Z,1.13
2018-03-14T01:43:55.685Z,1.03
2018-03-14T01:46:22.912Z,1.10
2018-03-14T01:48:50.311Z,0.90
2018-03-14T01:51:17.738Z,1.00
2018-03-14T01:53:45.146Z,0.90
2018-03-14T01:56:12.581Z,0.80
2018-03-14T01:58:39.982Z,1.60
2018-03-14T02:01:07.403Z,1.37
2018-03-14T02:03:34.825Z,1.37
2018-03-14T02:06:02.053Z,1.20
2018-03-14T02:08:29.462Z,1.07
2018-03-14T02:10:56.682Z,1.10
2018-03-14T02:13:24.091Z,1.30
2018-03-14T02:15:51.509Z,1.20
2018-03-14T02:18:18.742Z,0.90
2018-03-14T02:20:46.789Z,1.30
2018-03-14T02:23:14.004Z,1.27
2018-03-14T02:25:41.218Z,1.43
2018-03-14T02:28:08.644Z,1.40
2018-03-14T02:30:36.050Z,1.10
2018-03-14T02:33:03.484Z,1.60
2018-03-14T02:35:30.892Z,2.07
2018-03-14T02:37:58.310Z,1.73
2018-03-14T02:40:25.727Z,1.73
2018-03-14T02:42:53.149Z,1.57
2018-03-14T02:45:20.565Z,1.57
2018-03-14T02:47:47.787Z,1.80
2018-03-14T02:50:14.994Z,2.10
2018-03-14T02:52:42.201Z,1.80
2018-03-14T02:55:09.408Z,2.03
2018-03-14T02:57:36.653Z,2.03
2018-03-14T03:00:03.527Z,2.10
2018-03-14T03:02:30.753Z,2.60
2018-03-14T03:04:57.965Z,2.70
2018-03-14T03:07:25.181Z,2.77
2018-03-14T03:09:52.586Z,3.40
2018-03-14T03:12:19.788Z,2.53
2018-03-14T03:14:46.992Z,3.30
2018-03-14T03:17:14.217Z,2.67
2018-03-14T03:19:41.424Z,3.07
2018-03-14T03:22:08.955Z,2.80
2018-03-14T03:24:36.188Z,3.93
2018-03-14T03:27:03.395Z,2.73
2018-03-14T03:29:30.606Z,3.33
2018-03-14T03:31:57.858Z,3.20
2018-03-14T03:34:25.077Z,3.57
2018-03-14T03:36:52.281Z,2.37
2018-03-14T03:39:19.510Z,2.40
2018-03-14T03:41:47.455Z,2.90
2018-03-14T03:44:14.674Z,2.17
2018-03-14T03:46:41.884Z,2.23
2018-03-14T03:49:09.101Z,2.43
2018-03-14T03:51:36.305Z,1.90
2018-03-14T03:54:04.558Z,2.17
2018-03-14T03:56:31.785Z,1.73
2018-03-14T03:58:59.609Z,1.63
2018-03-14T04:01:26.812Z,1.77
2018-03-14T04:03:54.028Z,1.90
2018-03-14T04:06:21.246Z,2.37
2018-03-14T04:08:48.457Z,1.60
2018-03-14T04:11:15.672Z,2.30
2018-03-14T04:13:42.884Z,1.77
2018-03-14T04:16:10.098Z,1.87
2018-03-14T04:18:37.305Z,2.37
2018-03-14T04:21:04.518Z,2.13
2018-03-14T04:23:31.429Z,1.90
2018-03-14T04:25:58.649Z,2.10
2018-03-14T04:28:25.861Z,2.30
2018-03-14T04:30:53.096Z,2.43
2018-03-14T04:33:20.132Z,1.80
2018-03-14T04:35:47.352Z,1.73
2018-03-14T04:38:14.767Z,2.50
2018-03-14T04:40:41.972Z,1.90
2018-03-14T04:43:09.526Z,2.07
2018-03-14T04:45:36.752Z,2.13
2018-03-14T04:48:03.962Z,2.27
2018-03-14T04:50:31.198Z,2.20
2018-03-14T04:52:58.406Z,2.93
2018-03-14T04:55:25.605Z,2.00
2018-03-14T04:57:52.838Z,3.00
2018-03-14T05:00:20.081Z,3.13
2018-03-14T05:02:47.294Z,2.90
2018-03-14T05:05:15.507Z,3.10
2018-03-14T05:07:42.713Z,2.97
2018-03-14T05:10:15.576Z,2.90
2018-03-14T05:12:42.632Z,2.83
2018-03-14T05:15:11.406Z,2.83
2018-03-14T05:17:38.630Z,3.40
2018-03-14T05:20:09.676Z,3.60
2018-03-14T05:22:36.881Z,3.30
2018-03-14T05:27:36.918Z,3.50
2018-03-14T05:30:03.827Z,3.50
2018-03-14T05:32:31.841Z,3.30
2018-03-14T05:34:59.040Z,4.03
2018-03-14T05:37:26.269Z,4.00
2018-03-14T05:39:53.473Z,2.90
2018-03-14T05:42:20.684Z,3.70
2018-03-14T05:44:48.355Z,3.80
2018-03-14T05:47:16.408Z,4.60
2018-03-14T05:49:43.614Z,4.40
2018-03-14T05:52:11.361Z,3.87
2018-03-14T05:54:38.581Z,4.13
2018-03-14T05:57:06.497Z,4.10
2018-03-14T05:59:33.725Z,3.80
2018-03-14T06:02:01.868Z,4.30
2018-03-14T06:04:29.092Z,4.07
2018-03-14T06:06:56.370Z,4.40
2018-03-14T06:09:23.595Z,4.50
2018-03-14T06:11:50.816Z,4.73
2018-03-14T06:14:17.849Z,4.27
2018-03-14T06:16:45.058Z,4.40
2018-03-14T06:19:12.268Z,4.67
2018-03-14T06:21:39.500Z,4.60
2018-03-14T06:24:06.718Z,4.37
2018-03-14T06:26:34.185Z,4.80
2018-03-14T06:29:01.401Z,4.87
2018-03-14T06:31:28.621Z,4.10
2018-03-14T06:33:55.819Z,4.77
2018-03-14T06:36:23.345Z,4.70
2018-03-14T06:38:50.966Z,4.20
2018-03-14T06:41:18.655Z,4.97
2018-03-14T06:43:45.872Z,5.17
2018-03-14T06:46:13.110Z,5.20
2018-03-14T06:48:40.332Z,5.40
2018-03-14T06:51:08.445Z,5.33
2018-03-14T06:53:35.659Z,5.30
2018-03-14T06:56:02.877Z,3.70
2018-03-14T06:58:35.670Z,4.80
2018-03-14T07:01:08.381Z,5.00
2018-03-14T07:03:41.117Z,4.57
2018-03-14T07:06:10.860Z,4.80
2018-03-14T07:08:37.803Z,4.20
2018-03-14T07:11:05.008Z,4.27
2018-03-14T07:13:32.257Z,4.37
2018-03-14T07:16:00.769Z,3.90
2018-03-14T07:18:27.980Z,3.83
2018-03-14T07:20:55.200Z,3.53
2018-03-14T07:23:23.901Z,3.70
2018-03-14T07:25:53.657Z,3.23
2018-03-14T07:28:23.613Z,3.00
2018-03-14T07:30:51.725Z,3.23
2018-03-14T07:33:18.948Z,2.10
2018-03-14T07:35:46.158Z,2.37
2018-03-14T07:38:13.964Z,2.77
2018-03-14T07:40:41.246Z,2.30
2018-03-14T07:43:08.471Z,2.60
2018-03-14T07:45:36.296Z,2.00
2018-03-14T07:48:04.102Z,2.50
2018-03-14T07:50:31.314Z,1.97
2018-03-14T07:52:58.228Z,2.03
2018-03-14T07:55:25.434Z,2.33
2018-03-14T07:57:52.653Z,2.20
2018-03-14T08:00:19.887Z,1.77
2018-03-14T08:02:47.097Z,1.97
2018-03-14T08:05:14.323Z,2.27
2018-03-14T08:07:41.589Z,2.47
2018-03-14T08:10:09.448Z,2.13
2018-03-14T08:12:36.667Z,2.50
2018-03-14T08:15:03.556Z,2.27
2018-03-14T08:17:30.769Z,2.20
2018-03-14T08:19:58.024Z,1.90
2018-03-14T08:22:25.244Z,2.00
2018-03-14T08:24:52.458Z,2.47
2018-03-14T08:27:19.686Z,2.43
2018-03-14T08:29:46.914Z,2.63
2018-03-14T08:32:14.133Z,2.67
2018-03-14T08:34:41.345Z,3.27
2018-03-14T08:37:08.564Z,2.70
2018-03-14T08:39:35.772Z,2.33
2018-03-14T08:42:02.991Z,2.90
2018-03-14T08:44:30.213Z,2.83
2018-03-14T08:46:57.429Z,2.60
2018-03-14T08:49:24.647Z,3.20
2018-03-14T08:51:51.903Z,2.40
2018-03-14T08:54:19.136Z,2.40
2018-03-14T08:56:46.377Z,3.33
2018-03-14T08:59:13.791Z,3.30
2018-03-14T09:01:41.006Z,3.60
2018-03-14T09:04:08.029Z,3.00
2018-03-14T09:06:35.241Z,3.00
2018-03-14T09:09:02.461Z,3.43
2018-03-14T09:11:29.682Z,3.57
2018-03-14T09:13:56.923Z,2.53
2018-03-14T09:16:24.123Z,2.17
2018-03-14T09:18:51.869Z,2.47
2018-03-14T09:21:19.115Z,2.80
2018-03-14T09:23:46.506Z,3.00
2018-03-14T09:26:13.761Z,3.23
2018-03-14T09:28:40.989Z,2.70
2018-03-14T09:31:08.209Z,3.20
2018-03-14T09:33:35.457Z,3.50
2018-03-14T09:36:02.682Z,3.63
2018-03-14T09:38:30.913Z,3.20
2018-03-14T09:40:58.121Z,4.10
2018-03-14T09:43:25.337Z,3.90
2018-03-14T09:45:53.385Z,3.50
2018-03-14T09:48:20.601Z,4.07
2018-03-14T09:50:47.622Z,3.20
2018-03-14T09:53:14.843Z,3.30
2018-03-14T09:55:42.077Z,3.47
2018-03-14T09:58:09.300Z,3.10
2018-03-14T10:00:36.506Z,3.30
2018-03-14T10:03:03.721Z,5.57
2018-03-14T10:05:30.930Z,3.80
2018-03-14T10:07:58.141Z,2.83
2018-03-14T10:10:25.357Z,3.73
2018-03-14T10:12:52.589Z,3.37
2018-03-14T10:15:19.801Z,3.13
2018-03-14T10:17:47.017Z,2.70
2018-03-14T10:20:14.237Z,3.07
2018-03-14T10:22:41.441Z,3.30
2018-03-14T10:25:09.118Z,3.27
2018-03-14T10:27:36.353Z,2.50
2018-03-14T10:30:03.603Z,2.53
2018-03-14T10:32:30.839Z,3.10
2018-03-14T10:34:57.887Z,3.87
2018-03-14T10:37:25.089Z,3.57
2018-03-14T10:39:52.393Z,3.33
2018-03-14T10:42:19.601Z,2.60
2018-03-14T10:44:47.337Z,3.00
2018-03-14T10:47:14.545Z,2.90
2018-03-14T10:49:41.756Z,2.73
2018-03-14T10:52:09.985Z,3.43
2018-03-14T10:54:37.209Z,2.83
2018-03-14T10:57:05.186Z,3.07
2018-03-14T10:59:32.399Z,3.30
2018-03-14T11:02:05.085Z,3.50
2018-03-14T11:04:33.315Z,2.60
2018-03-14T11:07:00.523Z,3.80
2018-03-14T11:09:28.621Z,3.50
2018-03-14T11:11:56.444Z,3.20
2018-03-14T11:14:24.423Z,3.20
2018-03-14T11:16:52.351Z,3.47
2018-03-14T11:19:19.556Z,2.40
2018-03-14T11:21:46.761Z,2.93
2018-03-14T11:24:13.977Z,3.43
2018-03-14T11:26:41.192Z,3.23
2018-03-14T11:29:08.723Z,3.77
2018-03-14T11:31:35.934Z,3.33
2018-03-14T11:34:03.138Z,3.13
2018-03-14T11:36:30.421Z,3.50
2018-03-14T11:38:59.169Z,3.67
2018-03-14T11:41:27.040Z,2.90
2018-03-14T11:43:54.247Z,3.33
2018-03-14T11:46:21.459Z,3.07
2018-03-14T11:48:48.693Z,3.10
2018-03-14T11:51:15.918Z,3.07
2018-03-14T11:53:43.125Z,2.87
2018-03-14T11:56:10.331Z,3.70
2018-03-14T11:58:37.569Z,3.07
2018-03-14T12:01:04.786Z,2.17
2018-03-14T12:03:32.010Z,3.43
2018-03-14T12:05:59.251Z,2.70
2018-03-14T12:08:26.465Z,2.70
2018-03-14T12:10:53.692Z,1.97
2018-03-14T12:13:20.888Z,2.40
2018-03-14T12:15:48.108Z,2.90
2018-03-14T12:18:15.321Z,2.00
2018-03-14T12:20:42.535Z,2.53
2018-03-14T12:23:09.761Z,2.43
2018-03-14T12:25:36.979Z,2.60
2018-03-14T12:28:04.208Z,2.60
2018-03-14T12:30:31.418Z,2.80
2018-03-14T12:32:58.698Z,3.27
2018-03-14T12:35:25.920Z,3.03
2018-03-14T12:37:53.198Z,2.77
2018-03-14T12:40:20.424Z,2.50
2018-03-14T12:42:47.643Z,3.40
2018-03-14T12:45:14.860Z,2.87
2018-03-14T12:47:42.105Z,2.60
2018-03-14T12:50:09.345Z,2.07
2018-03-14T12:52:36.560Z,3.07
2018-03-14T12:55:03.794Z,2.67
2018-03-14T12:57:31.210Z,2.13
2018-03-14T12:59:58.460Z,1.93
2018-03-14T13:02:25.709Z,1.63
2018-03-14T13:04:53.109Z,2.00
2018-03-14T13:07:20.312Z,2.10
2018-03-14T13:09:47.517Z,2.40
2018-03-14T13:12:14.830Z,2.30
2018-03-14T13:14:42.064Z,2.30
2018-03-14T13:17:09.313Z,2.20
2018-03-14T13:19:36.518Z,2.30
2018-03-14T13:22:03.953Z,2.43
2018-03-14T13:24:31.361Z,2.60
2018-03-14T13:26:58.578Z,2.43
2018-03-14T13:29:25.834Z,2.30
2018-03-14T13:31:53.217Z,2.63
2018-03-14T13:34:20.435Z,2.20
2018-03-14T13:36:47.672Z,2.40
2018-03-14T13:39:14.909Z,2.77
2018-03-14T13:41:42.173Z,2.47
2018-03-14T13:44:10.532Z,3.00
2018-03-14T13:46:38.256Z,2.60
2018-03-14T13:49:05.506Z,2.23
2018-03-14T13:51:32.714Z,2.53
2018-03-14T13:53:59.968Z,2.40
2018-03-14T13:56:27.184Z,2.80
2018-03-14T13:58:54.400Z,2.57
2018-03-14T14:01:21.621Z,2.70
2018-03-14T14:03:48.836Z,2.80
2018-03-14T14:06:16.070Z,2.20
2018-03-14T14:08:43.285Z,2.00
2018-03-14T14:11:10.555Z,1.97
2018-03-14T14:13:37.807Z,2.10
2018-03-14T14:16:05.037Z,2.13
2018-03-14T14:18:32.289Z,2.27
2018-03-14T14:20:59.512Z,2.60
2018-03-14T14:23:26.777Z,1.80
2018-03-14T14:25:54.009Z,1.83
2018-03-14T14:28:21.229Z,1.97
2018-03-14T14:30:48.447Z,1.70
2018-03-14T14:33:15.675Z,1.50
2018-03-14T14:35:43.480Z,1.50
2018-03-14T14:38:10.695Z,1.30
2018-03-14T14:40:37.906Z,1.70
2018-03-14T14:43:05.121Z,1.20
2018-03-14T14:45:32.345Z,1.30
2018-03-14T14:47:59.567Z,1.27
2018-03-14T14:50:26.980Z,1.50
2018-03-14T14:52:54.197Z,1.50
2018-03-14T14:55:21.417Z,1.90
2018-03-14T14:57:48.631Z,1.70
2018-03-14T15:00:15.859Z,1.50
2018-03-14T15:02:43.085Z,1.87
2018-03-14T15:05:10.314Z,1.83
2018-03-14T15:07:37.518Z,1.67
2018-03-14T15:10:04.766Z,1.47
2018-03-14T15:12:32.110Z,2.00
2018-03-14T15:14:59.329Z,1.60
2018-03-14T15:17:26.551Z,1.67
2018-03-14T15:19:53.765Z,1.90
2018-03-14T15:22:21.001Z,1.57
2018-03-14T15:24:48.217Z,1.37
2018-03-14T15:27:15.441Z,1.47
2018-03-14T15:29:42.673Z,2.00
2018-03-14T15:32:10.597Z,1.70
2018-03-14T15:34:38.360Z,1.50
2018-03-14T15:37:06.646Z,2.00
2018-03-14T15:39:34.493Z,2.80
2018-03-14T15:42:02.483Z,2.23
2018-03-14T15:44:30.485Z,2.20
2018-03-14T15:46:57.690Z,2.20
2018-03-14T15:49:24.904Z,2.10
2018-03-14T15:51:52.400Z,2.37
2018-03-14T15:54:20.139Z,2.50
2018-03-14T15:56:47.351Z,1.87
2018-03-14T15:59:14.625Z,1.80
2018-03-14T16:01:41.845Z,2.30
2018-03-14T16:04:09.059Z,3.10
2018-03-14T16:06:36.306Z,2.23
2018-03-14T16:09:03.229Z,2.07
2018-03-14T16:11:31.323Z,2.03
2018-03-14T16:13:58.565Z,2.80
2018-03-14T16:16:25.835Z,2.10
2018-03-14T16:18:53.054Z,2.20
2018-03-14T16:21:20.274Z,1.77
2018-03-14T16:23:47.233Z,1.73
2018-03-14T16:26:14.458Z,2.20
2018-03-14T16:28:42.214Z,2.43
2018-03-14T16:31:09.757Z,2.80
2018-03-14T16:33:37.010Z,1.87
2018-03-14T16:36:04.467Z,1.40
2018-03-14T16:38:31.709Z,1.60
2018-03-14T16:40:58.927Z,1.60
2018-03-14T16:43:26.192Z,1.80
2018-03-14T16:45:53.425Z,2.33
2018-03-14T16:48:20.705Z,2.00
2018-03-14T16:50:47.956Z,1.90
2018-03-14T16:53:15.173Z,1.60
2018-03-14T16:55:42.387Z,2.17
2018-03-14T16:58:09.609Z,1.93
2018-03-14T17:00:36.878Z,1.20
2018-03-14T17:03:04.139Z,2.00
2018-03-14T17:05:31.360Z,1.47
2018-03-14T17:07:58.836Z,2.27
2018-03-14T17:10:26.050Z,2.03
2018-03-14T17:12:53.280Z,2.43
2018-03-14T17:15:20.485Z,2.20
2018-03-14T17:17:48.214Z,1.60
2018-03-14T17:20:15.428Z,1.60
2018-03-14T17:22:43.482Z,1.87
2018-03-14T17:25:10.688Z,2.10
2018-03-14T17:27:37.910Z,2.40
2018-03-14T17:30:06.321Z,2.20
2018-03-14T17:32:34.406Z,2.70
2018-03-14T17:35:01.649Z,2.07
2018-03-14T17:37:28.888Z,2.37
2018-03-14T17:39:56.093Z,1.80
2018-03-14T17:42:23.323Z,3.77
2018-03-14T17:44:50.533Z,2.80
2018-03-14T17:47:17.574Z,1.70
2018-03-14T17:49:44.789Z,1.83
2018-03-14T17:52:12.028Z,2.07
2018-03-14T17:54:39.241Z,1.90
2018-03-14T17:57:06.457Z,1.30
2018-03-14T17:59:33.674Z,1.43
2018-03-14T18:02:00.909Z,1.13
2018-03-14T18:04:28.145Z,1.40
2018-03-14T18:06:55.393Z,1.47
2018-03-14T18:09:22.605Z,1.67
2018-03-14T18:11:49.821Z,1.50
2018-03-14T18:14:17.039Z,1.90
2018-03-14T18:16:44.270Z,1.40
2018-03-14T18:19:11.784Z,1.80
2018-03-14T18:21:39.000Z,1.47
2018-03-14T18:24:06.240Z,1.43
2018-03-14T18:26:33.459Z,2.10
2018-03-14T18:29:00.673Z,2.07
2018-03-14T18:31:29.696Z,2.07
2018-03-14T18:33:57.359Z,2.00
2018-03-14T18:36:24.585Z,3.07
2018-03-14T18:38:51.837Z,2.80
2018-03-14T18:41:18.946Z,2.77
2018-03-14T18:43:46.173Z,3.33
2018-03-14T18:46:13.976Z,3.63
2018-03-14T18:48:41.224Z,4.43
2018-03-14T18:51:08.436Z,4.00
2018-03-14T18:53:35.650Z,3.47
2018-03-14T18:56:02.865Z,3.20
2018-03-14T18:58:30.078Z,3.00
2018-03-14T19:00:57.311Z,3.70
2018-03-14T19:03:24.540Z,3.93
2018-03-14T19:05:51.757Z,3.17
2018-03-14T19:08:19.050Z,4.20
2018-03-14T19:10:46.377Z,2.87
2018-03-14T19:13:13.629Z,3.13
2018-03-14T19:15:40.525Z,4.17
2018-03-14T19:18:07.761Z,3.00
2018-03-14T19:20:34.974Z,3.67
2018-03-14T19:23:02.257Z,3.30
2018-03-14T19:25:29.477Z,3.77
2018-03-14T19:27:56.683Z,3.50
2018-03-14T19:30:23.925Z,4.03
2018-03-14T19:32:51.200Z,4.87
2018-03-14T19:35:18.424Z,6.00
2018-03-14T19:37:45.737Z,7.07
2018-03-14T19:40:12.967Z,5.60
2018-03-14T19:42:40.200Z,2.80
2018-03-14T19:45:08.583Z,4.23
2018-03-14T19:47:35.800Z,3.60
2018-03-14T19:50:03.068Z,3.87
2018-03-14T19:52:30.334Z,3.20
2018-03-14T19:54:57.560Z,2.83
2018-03-14T19:57:24.807Z,2.63
2018-03-14T19:59:52.026Z,2.97
2018-03-14T20:02:19.237Z,2.07
2018-03-14T20:04:46.457Z,2.97
2018-03-14T20:07:13.665Z,3.10
2018-03-14T20:09:40.869Z,3.37
2018-03-14T20:12:08.120Z,3.17
2018-03-14T20:14:35.058Z,2.60
2018-03-14T20:17:02.348Z,2.87
2018-03-14T20:19:29.673Z,3.30
2018-03-14T20:21:56.898Z,3.30
2018-03-14T20:24:24.224Z,3.60
2018-03-14T20:26:51.462Z,3.23
2018-03-14T20:29:18.680Z,5.23
2018-03-14T20:31:45.958Z,4.30
2018-03-14T20:34:13.185Z,3.83
2018-03-14T20:36:40.437Z,5.00
2018-03-14T20:39:07.532Z,6.13
2018-03-14T20:41:34.770Z,5.10
2018-03-14T20:44:02.005Z,4.90
2018-03-14T20:46:29.265Z,4.27
2018-03-14T20:48:56.503Z,4.00
2018-03-14T20:51:23.725Z,3.70
2018-03-14T20:53:51.011Z,4.13
2018-03-14T20:56:18.233Z,4.17
2018-03-14T20:58:45.694Z,3.60
2018-03-14T21:01:13.222Z,4.40
2018-03-14T21:03:40.461Z,4.37
2018-03-14T21:06:07.700Z,4.73
2018-03-14T21:08:35.073Z,4.60
2018-03-14T21:11:02.299Z,4.03
2018-03-14T21:13:29.531Z,6.27
2018-03-14T21:15:56.741Z,5.40
2018-03-14T21:18:23.957Z,3.60
2018-03-14T21:20:51.898Z,4.47
2018-03-14T21:23:19.801Z,3.77
2018-03-14T21:25:47.729Z,3.70
2018-03-14T21:28:16.435Z,4.37
2018-03-14T21:30:43.649Z,4.40
2018-03-14T21:33:10.870Z,4.90
2018-03-14T21:35:40.253Z,4.30
2018-03-14T21:38:07.473Z,4.90
2018-03-14T21:40:34.685Z,4.30
2018-03-14T21:43:01.917Z,4.57
2018-03-14T21:45:29.143Z,5.57
2018-03-14T21:47:57.138Z,4.70
2018-03-14T21:50:24.379Z,6.70
2018-03-14T21:52:52.415Z,7.13
2018-03-14T21:55:34.208Z,6.57
2018-03-14T21:58:01.465Z,7.53
2018-03-14T22:00:28.681Z,6.30
2018-03-14T22:02:55.990Z,6.77
2018-03-14T22:05:23.218Z,7.20
2018-03-14T22:07:50.464Z,7.03
2018-03-14T22:10:17.683Z,8.17
2018-03-14T22:12:44.911Z,10.03
2018-03-14T22:15:12.323Z,15.03
2018-03-14T22:17:39.725Z,15.00
2018-03-14T22:20:08.784Z,9.90
2018-03-14T22:22:38.125Z,10.13
2018-03-14T22:25:05.333Z,9.37
2018-03-14T22:27:32.633Z,10.00
2018-03-14T22:29:59.873Z,10.40
2018-03-14T22:32:27.113Z,11.33
2018-03-14T22:34:54.361Z,10.60
2018-03-14T22:37:21.574Z,9.00
2018-03-14T22:39:48.844Z,9.43
2018-03-14T22:42:16.208Z,9.47
2018-03-14T22:44:43.269Z,8.17
2018-03-14T22:47:10.513Z,10.07
2018-03-14T22:49:37.761Z,9.13
2018-03-14T22:52:05.389Z,9.30
2018-03-14T22:54:32.618Z,10.33
2018-03-14T22:56:59.859Z,10.60
2018-03-14T22:59:27.831Z,10.67
2018-03-14T23:01:56.253Z,9.80
2018-03-14T23:04:24.346Z,9.80
2018-03-14T23:06:51.608Z,9.20
2018-03-14T23:09:24.585Z,10.17
2018-03-14T23:11:51.804Z,9.23
2018-03-14T23:14:19.044Z,9.93
2018-03-14T23:16:47.079Z,9.17
2018-03-14T23:19:14.327Z,9.90
2018-03-14T23:21:41.611Z,9.40
2018-03-14T23:24:08.831Z,9.67
2018-03-14T23:26:36.090Z,9.50
2018-03-14T23:29:04.991Z,9.30
2018-03-14T23:31:32.218Z,9.17
2018-03-14T23:33:59.978Z,9.40
2018-03-14T23:36:27.789Z,9.50
2018-03-14T23:38:56.773Z,9.10
2018-03-14T23:41:25.531Z,9.53
2018-03-14T23:43:53.591Z,10.83
2018-03-14T23:46:21.806Z,10.27
2018-03-14T23:48:49.043Z,9.07
2018-03-14T23:51:18.046Z,9.60
2018-03-14T23:53:45.280Z,10.30
2018-03-14T23:56:12.572Z,8.77
2018-03-14T23:58:39.804Z,9.47
